Time;durP1;ratioP1;P1;durP2;ratioP2;P2;SDS_P1;SDS_P2;PMS_P1;PMS_P2;Temp;Humidity;BMP_temperature;BMP_pressure;BME280_temperature;BME280_humidity;BME280_pressure;Samples;Min_cycle;Max_cycle;Signal;HPM_P1;HPM_P2
2024/03/12 00:00:59;;;;;;;7.57;5.47;;;;;;;3.99;100.00;100418.09;5033890;28;20637;-70
2024/03/12 00:03:27;;;;;;;8.03;5.60;;;;;;;4.01;100.00;100421.22;5030034;28;20656;-70
2024/03/12 00:05:57;;;;;;;9.27;5.70;;;;;;;4.04;100.00;100414.63;5030330;28;20207;-70
2024/03/12 00:08:23;;;;;;;8.23;5.90;;;;;;;4.07;100.00;100414.84;5035085;28;20200;-70
2024/03/12 00:10:50;;;;;;;9.33;5.60;;;;;;;4.11;100.00;100412.41;5032310;28;20211;-70
2024/03/12 00:13:16;;;;;;;7.33;5.13;;;;;;;4.12;100.00;100412.13;5034824;28;20204;-70
2024/03/12 00:15:44;;;;;;;9.20;5.83;;;;;;;4.14;100.00;100415.22;5031428;28;20227;-70
2024/03/12 00:18:10;;;;;;;7.30;5.30;;;;;;;4.18;100.00;100418.03;5035467;28;20215;-70
2024/03/12 00:20:39;;;;;;;7.00;5.10;;;;;;;4.21;100.00;100420.09;5040819;28;20214;-70
2024/03/12 00:23:08;;;;;;;9.30;5.17;;;;;;;4.22;100.00;100417.19;5037211;28;20275;-70
2024/03/12 00:25:36;;;;;;;6.47;5.50;;;;;;;4.25;100.00;100421.84;5036823;28;20224;-70
2024/03/12 00:28:05;;;;;;;9.17;5.13;;;;;;;4.27;100.00;100426.78;5030621;28;20275;-70
2024/03/12 00:34:20;;;;;;;7.40;4.90;;;;;;;4.31;100.00;100425.16;5030407;28;20215;-70
2024/03/12 00:40:36;;;;;;;6.87;5.53;;;;;;;4.34;100.00;100420.13;5031697;28;20247;-70
2024/03/12 00:43:03;;;;;;;7.37;5.30;;;;;;;4.36;100.00;100423.22;5033934;28;20242;-70
2024/03/12 00:45:36;;;;;;;6.30;4.90;;;;;;;4.37;100.00;100424.00;5032148;28;20707;-70
2024/03/12 00:48:03;;;;;;;5.47;4.63;;;;;;;4.39;100.00;100429.69;5031880;28;20208;-70
2024/03/12 00:50:31;;;;;;;7.87;4.57;;;;;;;4.37;100.00;100422.16;5029108;28;20200;-70
2024/03/12 00:53:15;;;;;;;6.53;4.83;;;;;;;4.38;100.00;100422.94;5034125;28;20266;-70
2024/03/12 00:55:42;;;;;;;5.73;4.33;;;;;;;4.40;100.00;100431.28;5030520;28;20218;-70
2024/03/12 00:58:12;;;;;;;5.77;4.53;;;;;;;4.38;100.00;100426.34;5033878;28;20232;-70
2024/03/12 01:00:39;;;;;;;6.37;4.80;;;;;;;4.38;100.00;100428.94;5036331;28;20625;-70
2024/03/12 01:03:08;;;;;;;8.13;4.90;;;;;;;4.37;100.00;100424.00;5035901;28;20207;-70
2024/03/12 01:05:37;;;;;;;5.47;4.40;;;;;;;4.36;100.00;100422.44;5041762;28;20234;-70
2024/03/12 01:08:06;;;;;;;6.57;4.47;;;;;;;4.35;100.00;100421.66;5038762;28;20696;-70
2024/03/12 01:10:33;;;;;;;7.03;4.80;;;;;;;4.34;100.00;100425.34;5036757;28;20203;-70
2024/03/12 01:13:01;;;;;;;7.00;4.97;;;;;;;4.30;100.00;100429.59;5025859;28;20224;-70
2024/03/12 01:15:28;;;;;;;5.60;4.10;;;;;;;4.29;100.00;100422.81;5040538;28;20277;-70
2024/03/12 01:17:56;;;;;;;5.37;4.40;;;;;;;4.27;100.00;100421.56;5036145;28;20206;-70
2024/03/12 01:20:24;;;;;;;6.37;4.63;;;;;;;4.26;100.00;100420.00;5037977;28;20230;-70
2024/03/12 01:22:54;;;;;;;6.87;5.03;;;;;;;4.23;100.00;100423.19;5033253;28;20196;-70
2024/03/12 01:29:08;;;;;;;7.67;4.90;;;;;;;4.17;100.00;100422.50;5024917;28;20643;-70
2024/03/12 01:31:34;;;;;;;9.03;5.77;;;;;;;4.16;100.00;100434.03;5030258;28;20231;-70
2024/03/12 01:34:01;;;;;;;7.20;5.53;;;;;;;4.12;100.00;100427.03;5034013;28;20224;-70
2024/03/12 01:36:34;;;;;;;7.97;5.27;;;;;;;4.11;100.00;100430.72;5038181;28;20216;-70
2024/03/12 01:39:04;;;;;;;6.90;5.03;;;;;;;4.08;100.00;100436.50;5029991;28;20215;-70
2024/03/12 01:41:44;;;;;;;5.90;4.50;;;;;;;4.06;100.00;100436.00;5031400;28;20258;-71
2024/03/12 01:44:11;;;;;;;6.93;4.63;;;;;;;4.02;100.00;100432.41;5034862;28;20217;-70
2024/03/12 01:50:39;;;;;;;5.93;4.27;;;;;;;3.94;100.00;100428.63;5031472;28;20190;-70
2024/03/12 01:53:06;;;;;;;5.50;4.30;;;;;;;3.92;100.00;100428.13;5034563;28;20206;-71
2024/03/12 01:55:37;;;;;;;8.03;4.63;;;;;;;3.90;100.00;100426.88;5033974;28;20225;-72
2024/03/12 01:58:04;;;;;;;6.37;4.50;;;;;;;3.87;100.00;100430.03;5033208;28;20192;-73
2024/03/12 02:00:32;;;;;;;6.10;4.37;;;;;;;3.84;100.00;100426.16;5034797;28;20323;-73
2024/03/12 02:03:00;;;;;;;4.63;3.70;;;;;;;3.81;100.00;100431.16;5029299;28;20670;-72
2024/03/12 02:05:26;;;;;;;6.17;4.50;;;;;;;3.79;100.00;100428.09;5035023;28;20212;-72
2024/03/12 02:07:54;;;;;;;5.50;4.10;;;;;;;3.76;100.00;100432.03;5031689;28;20211;-72
2024/03/12 02:10:20;;;;;;;5.50;4.80;;;;;;;3.75;100.00;100432.31;5029905;28;20196;-73
2024/03/12 02:20:23;;;;;;;4.77;3.80;;;;;;;3.69;100.00;100443.91;5037784;28;20230;-72
2024/03/12 02:22:53;;;;;;;6.47;4.17;;;;;;;3.68;100.00;100450.19;5037954;28;20554;-72
2024/03/12 02:25:20;;;;;;;5.37;4.23;;;;;;;3.67;100.00;100456.44;5039689;28;20212;-72
2024/03/12 02:27:47;;;;;;;6.27;4.40;;;;;;;3.67;100.00;100459.03;5034492;28;20204;-73
2024/03/12 02:30:14;;;;;;;9.13;4.73;;;;;;;3.65;100.00;100453.34;5037415;28;20570;-73
2024/03/12 02:32:40;;;;;;;6.13;4.40;;;;;;;3.65;100.00;100448.91;5034445;28;20203;-73
2024/03/12 02:35:10;;;;;;;7.00;4.57;;;;;;;3.65;100.00;100458.56;5040078;28;20578;-73
2024/03/12 02:37:37;;;;;;;6.27;4.83;;;;;;;3.65;100.00;100458.56;5030795;28;20347;-73
2024/03/12 02:40:05;;;;;;;6.53;4.60;;;;;;;3.64;100.00;100463.00;5033915;28;20206;-73
2024/03/12 02:42:33;;;;;;;6.53;4.67;;;;;;;3.64;100.00;100457.78;5043715;28;20216;-72
2024/03/12 02:44:59;;;;;;;12.50;4.70;;;;;;;3.64;100.00;100457.78;5038980;28;20223;-73
2024/03/12 02:47:26;;;;;;;6.40;4.83;;;;;;;3.65;100.00;100455.97;5040897;28;20547;-73
2024/03/12 02:49:53;;;;;;;5.57;4.33;;;;;;;3.65;100.00;100458.56;5037307;28;20200;-72
2024/03/12 02:52:21;;;;;;;7.00;4.40;;;;;;;3.64;100.00;100454.41;5032482;28;20226;-72
2024/03/12 02:54:48;;;;;;;6.13;4.70;;;;;;;3.65;100.00;100458.56;5032050;28;20229;-73
2024/03/12 02:57:14;;;;;;;5.90;4.60;;;;;;;3.65;100.00;100453.34;5037287;28;20217;-73
2024/03/12 02:59:43;;;;;;;7.17;4.73;;;;;;;3.65;100.00;100458.56;5041656;28;20208;-73
2024/03/12 03:02:12;;;;;;;5.40;4.30;;;;;;;3.64;100.00;100462.25;5038665;28;20221;-72
2024/03/12 03:04:39;;;;;;;6.97;4.80;;;;;;;3.62;100.00;100457.28;5033790;28;20224;-72
2024/03/12 03:07:07;;;;;;;6.70;4.57;;;;;;;3.61;100.00;100457.56;5025258;28;20689;-72
2024/03/12 03:09:33;;;;;;;6.13;4.00;;;;;;;3.61;100.00;100462.78;5038158;28;20211;-72
2024/03/12 03:12:00;;;;;;;6.53;4.50;;;;;;;3.60;100.00;100456.81;5033782;28;20204;-73
2024/03/12 03:14:26;;;;;;;6.47;4.93;;;;;;;3.59;100.00;100457.88;5039826;28;20220;-73
2024/03/12 03:16:54;;;;;;;6.23;4.73;;;;;;;3.60;100.00;100458.63;5030276;28;20200;-73
2024/03/12 03:19:23;;;;;;;6.50;4.93;;;;;;;3.58;100.00;100464.13;5030808;28;20195;-73
2024/03/12 03:21:50;;;;;;;5.83;4.87;;;;;;;3.58;100.00;100456.28;5033840;28;20212;-73
2024/03/12 03:24:19;;;;;;;6.27;4.47;;;;;;;3.58;100.00;100469.34;5034570;28;20226;-73
2024/03/12 03:26:45;;;;;;;5.80;4.57;;;;;;;3.58;100.00;100466.75;5041738;28;20192;-73
2024/03/12 03:29:12;;;;;;;6.23;4.60;;;;;;;3.58;100.00;100455.53;5032767;28;20220;-73
2024/03/12 03:31:41;;;;;;;7.17;4.60;;;;;;;3.58;100.00;100463.38;5032219;28;20209;-73
2024/03/12 03:34:10;;;;;;;5.47;4.00;;;;;;;3.57;100.00;100456.59;5037137;28;20328;-72
2024/03/12 03:36:39;;;;;;;7.00;4.63;;;;;;;3.56;100.00;100468.88;5035583;28;20207;-73
2024/03/12 03:39:08;;;;;;;6.57;4.77;;;;;;;3.56;100.00;100468.06;5028110;28;20202;-73
2024/03/12 03:41:34;;;;;;;6.87;4.80;;;;;;;3.56;100.00;100455.03;5034643;28;20224;-72
2024/03/12 03:44:03;;;;;;;5.73;4.93;;;;;;;3.56;100.00;100470.69;5037024;28;20277;-72
2024/03/12 03:46:30;;;;;;;9.67;5.07;;;;;;;3.56;100.00;100473.31;5034674;28;20278;-73
2024/03/12 03:48:57;;;;;;;6.37;4.87;;;;;;;3.56;100.00;100470.69;5043133;28;20199;-73
2024/03/12 03:51:26;;;;;;;6.30;4.43;;;;;;;3.55;100.00;100475.16;5038908;28;20192;-72
2024/03/12 03:53:53;;;;;;;9.07;5.37;;;;;;;3.55;100.00;100472.53;5035661;28;20224;-73
2024/03/12 03:56:19;;;;;;;6.23;4.90;;;;;;;3.55;100.00;100458.69;5041200;28;20200;-73
2024/03/12 03:58:45;;;;;;;8.67;5.27;;;;;;;3.56;100.00;100473.31;5036298;28;20218;-73
2024/03/12 04:01:13;;;;;;;6.30;4.83;;;;;;;3.55;100.00;100467.31;5027753;28;20222;-73
2024/03/12 04:03:39;;;;;;;6.80;4.70;;;;;;;3.56;100.00;100470.69;5034838;28;20309;-72
2024/03/12 04:06:07;;;;;;;6.83;5.17;;;;;;;3.56;100.00;100483.75;5035900;28;20208;-72
2024/03/12 04:08:36;;;;;;;7.00;4.97;;;;;;;3.56;100.00;100474.09;5036296;28;20204;-73
2024/03/12 04:11:04;;;;;;;5.67;4.90;;;;;;;3.55;100.00;100475.16;5032145;28;20536;-73
2024/03/12 04:13:32;;;;;;;7.30;5.30;;;;;;;3.55;100.00;100476.97;5032046;28;20258;-73
2024/03/12 04:16:01;;;;;;;6.43;5.03;;;;;;;3.55;100.00;100476.97;5028412;28;20279;-72
2024/03/12 04:18:29;;;;;;;8.77;4.90;;;;;;;3.55;100.00;100482.19;5031770;28;20587;-73
2024/03/12 04:20:55;;;;;;;6.60;5.43;;;;;;;3.56;100.00;100486.34;5029748;28;20554;-73
2024/03/12 04:23:22;;;;;;;7.37;5.20;;;;;;;3.55;100.00;100488.22;5038733;28;20222;-73
2024/03/12 04:25:50;;;;;;;6.47;5.20;;;;;;;3.54;100.00;100494.50;5033411;28;20231;-73
2024/03/12 04:28:18;;;;;;;6.77;4.83;;;;;;;3.54;100.00;100499.72;5036716;28;20200;-73
2024/03/12 04:30:44;;;;;;;7.00;4.83;;;;;;;3.54;100.00;100501.53;5045301;28;20196;-72
2024/03/12 04:33:10;;;;;;;6.70;5.13;;;;;;;3.53;100.00;100505.19;5037777;28;20698;-73
2024/03/12 04:35:37;;;;;;;5.47;4.80;;;;;;;3.52;100.00;100509.63;5035039;28;20274;-73
2024/03/12 04:38:03;;;;;;;7.27;4.70;;;;;;;3.51;100.00;100509.91;5029878;28;20204;-73
2024/03/12 04:40:30;;;;;;;7.70;5.50;;;;;;;3.49;100.00;100517.25;5031760;28;20231;-72
2024/03/12 04:43:02;;;;;;;7.73;5.23;;;;;;;3.49;100.00;100522.47;5034236;28;20211;-72
2024/03/12 04:45:29;;;;;;;5.63;4.17;;;;;;;3.46;100.00;100509.97;5031432;28;20752;-72
2024/03/12 04:47:58;;;;;;;6.23;4.90;;;;;;;3.45;100.00;100527.47;5037385;28;20287;-72
2024/03/12 04:50:24;;;;;;;5.40;4.57;;;;;;;3.43;100.00;100526.97;5034825;28;20210;-73
2024/03/12 04:52:51;;;;;;;6.00;4.77;;;;;;;3.41;100.00;100520.47;5033356;28;20291;-72
2024/03/12 04:55:21;;;;;;;6.63;4.67;;;;;;;3.38;100.00;100527.03;5029326;28;20220;-72
2024/03/12 04:57:48;;;;;;;6.77;4.70;;;;;;;3.37;100.00;100538.53;5024525;28;20683;-72
2024/03/12 05:00:18;;;;;;;7.17;5.40;;;;;;;3.35;100.00;100532.81;5041757;28;20227;-72
2024/03/12 05:02:45;;;;;;;5.27;4.47;;;;;;;3.34;100.00;100535.69;5034460;28;20221;-73
2024/03/12 05:05:13;;;;;;;6.93;4.83;;;;;;;3.34;100.00;100539.09;5031427;28;20220;-72
2024/03/12 05:07:40;;;;;;;6.10;4.77;;;;;;;3.34;100.00;100540.91;5035215;28;20220;-72
2024/03/12 05:10:07;;;;;;;7.07;4.87;;;;;;;3.33;100.00;100541.97;5032559;28;20196;-72
2024/03/12 05:12:34;;;;;;;7.87;5.13;;;;;;;3.34;100.00;100548.75;5033313;28;20198;-72
2024/03/12 05:15:00;;;;;;;6.27;4.73;;;;;;;3.33;100.00;100549.81;5020300;28;20269;-72
2024/03/12 05:17:28;;;;;;;6.47;5.03;;;;;;;3.33;100.00;100547.97;5034944;28;20203;-72
2024/03/12 05:19:54;;;;;;;6.07;4.50;;;;;;;3.34;100.00;100553.97;5047053;28;20196;-72
2024/03/12 05:22:23;;;;;;;6.53;5.17;;;;;;;3.34;100.00;100557.38;5033956;28;20219;-72
2024/03/12 05:24:50;;;;;;;5.73;4.93;;;;;;;3.35;100.00;100563.34;5032168;28;20281;-72
2024/03/12 05:27:24;;;;;;;9.07;5.60;;;;;;;3.35;100.00;100564.13;5029886;28;20222;-72
2024/03/12 05:29:54;;;;;;;6.43;4.77;;;;;;;3.36;100.00;100565.69;5031332;28;20722;-72
2024/03/12 05:32:23;;;;;;;6.10;4.60;;;;;;;3.36;100.00;100570.13;5034814;28;20193;-72
2024/03/12 05:34:58;;;;;;;9.57;4.93;;;;;;;3.38;100.00;100574.00;5028698;28;20303;-73
2024/03/12 05:37:29;;;;;;;7.03;4.87;;;;;;;3.38;100.00;100574.00;5033854;28;20283;-72
2024/03/12 05:40:14;;;;;;;6.67;5.03;;;;;;;3.40;100.00;100571.91;5032250;28;20203;-73
2024/03/12 05:48:10;;;;;;;6.77;4.80;;;;;;;3.45;100.00;100584.91;5034986;28;20207;-73
2024/03/12 05:50:38;;;;;;;6.70;5.17;;;;;;;3.48;100.00;100592.16;5037642;28;20698;-73
2024/03/12 05:53:05;;;;;;;8.07;5.33;;;;;;;3.51;100.00;100594.22;5037223;28;20553;-72
2024/03/12 05:55:31;;;;;;;6.87;5.37;;;;;;;3.54;100.00;100593.69;5037262;28;20277;-73
2024/03/12 05:57:57;;;;;;;6.70;4.97;;;;;;;3.58;100.00;100599.13;5048351;28;20195;-72
2024/03/12 06:00:24;;;;;;;8.83;5.37;;;;;;;3.62;100.00;100600.09;5039026;28;20212;-72
2024/03/12 06:02:50;;;;;;;7.03;5.83;;;;;;;3.66;100.00;100603.72;5041912;28;20216;-72
2024/03/12 06:05:17;;;;;;;8.87;5.87;;;;;;;3.72;100.00;100602.59;5030814;28;20222;-73
2024/03/12 06:07:45;;;;;;;11.67;6.13;;;;;;;3.76;100.00;100603.59;5022259;28;20667;-73
2024/03/12 06:10:12;;;;;;;10.03;6.83;;;;;;;3.82;100.00;100608.50;5033300;28;20192;-72
2024/03/12 06:12:38;;;;;;;10.80;6.87;;;;;;;3.88;100.00;100609.97;5039242;28;20211;-72
2024/03/12 06:15:05;;;;;;;14.03;8.93;;;;;;;3.96;100.00;100613.81;5039177;28;20686;-73
2024/03/12 06:17:32;;;;;;;16.40;9.60;;;;;;;4.02;100.00;100618.69;5035803;28;20203;-72
2024/03/12 06:19:59;;;;;;;15.17;9.80;;;;;;;4.12;100.00;100618.56;5032930;28;20675;-72
2024/03/12 06:22:25;;;;;;;18.63;10.43;;;;;;;4.20;100.00;100625.00;5033535;28;20678;-72
2024/03/12 06:24:53;;;;;;;18.57;10.10;;;;;;;4.27;100.00;100618.34;5041533;28;20237;-73
2024/03/12 06:27:19;;;;;;;14.80;9.43;;;;;;;4.37;100.00;100622.66;5032818;28;20224;-73
2024/03/12 06:29:51;;;;;;;18.70;10.93;;;;;;;4.44;100.00;100625.69;5036358;28;20207;-73
2024/03/12 06:32:19;;;;;;;17.87;10.67;;;;;;;4.51;100.00;100626.13;5036764;28;20204;-73
2024/03/12 06:34:46;;;;;;;20.10;10.87;;;;;;;4.60;100.00;100624.41;5034849;28;20295;-73
2024/03/12 06:37:13;;;;;;;22.27;12.63;;;;;;;4.66;100.00;100631.13;5033314;28;20682;-72
2024/03/12 06:39:44;;;;;;;21.50;12.23;;;;;;;4.73;100.00;100631.53;5029600;28;20214;-73
2024/03/12 06:42:12;;;;;;;24.00;12.70;;;;;;;4.78;100.00;100632.25;5043617;28;20574;-72
2024/03/12 06:44:42;;;;;;;22.60;12.33;;;;;;;4.85;100.00;100637.88;5032970;28;20262;-73
2024/03/12 06:47:09;;;;;;;23.10;12.03;;;;;;;4.91;100.00;100641.97;5031085;28;20203;-73
2024/03/12 06:49:36;;;;;;;19.83;11.17;;;;;;;4.97;100.00;100637.44;5038780;28;20287;-73
2024/03/12 06:52:06;;;;;;;23.80;13.03;;;;;;;5.02;100.00;100637.34;5030776;28;20208;-73
2024/03/12 06:54:34;;;;;;;20.33;9.47;;;;;;;5.07;100.00;100647.75;5034690;28;20215;-70
2024/03/12 06:57:01;;;;;;;16.10;9.30;;;;;;;5.13;100.00;100647.34;5032583;28;20278;-70
2024/03/12 06:59:28;;;;;;;15.37;9.20;;;;;;;5.20;100.00;100647.78;5032053;28;20208;-70
2024/03/12 07:01:55;;;;;;;11.97;8.60;;;;;;;5.25;100.00;100654.75;5031867;28;20200;-70
2024/03/12 07:04:23;;;;;;;15.10;9.03;;;;;;;5.33;100.00;100648.88;5032727;28;20250;-70
2024/03/12 07:06:50;;;;;;;10.83;7.97;;;;;;;5.39;100.00;100642.47;5029609;28;20200;-70
2024/03/12 07:09:26;;;;;;;13.17;7.27;;;;;;;5.45;100.00;100654.41;5037325;28;20227;-70
2024/03/12 07:11:54;;;;;;;11.07;6.93;;;;;;;5.52;100.00;100649.56;5034028;28;20206;-70
2024/03/12 07:14:27;;;;;;;9.30;6.77;;;;;;;5.59;100.00;100645.47;5037590;28;20240;-70
2024/03/12 07:16:55;;;;;;;9.77;6.93;;;;;;;5.67;100.00;100655.31;5035991;28;20290;-70
2024/03/12 07:19:22;;;;;;;10.40;6.87;;;;;;;5.74;100.00;100658.28;5032484;28;20614;-70
2024/03/12 07:21:48;;;;;;;9.73;6.97;;;;;;;5.82;100.00;100654.25;5033576;28;20210;-70
2024/03/12 07:24:15;;;;;;;11.33;6.93;;;;;;;5.89;100.00;100659.88;5031596;28;20215;-70
2024/03/12 07:26:44;;;;;;;8.73;6.80;;;;;;;5.97;100.00;100664.44;5032498;28;20206;-70
2024/03/12 07:29:10;;;;;;;9.97;6.97;;;;;;;6.05;100.00;100666.34;5031971;28;20203;-70
2024/03/12 07:31:37;;;;;;;9.33;7.33;;;;;;;6.13;100.00;100663.06;5031239;28;20283;-71
2024/03/12 07:34:05;;;;;;;10.67;7.67;;;;;;;6.21;100.00;100665.78;5028971;28;20587;-70
2024/03/12 07:36:32;;;;;;;9.23;6.37;;;;;;;6.31;100.00;100670.03;5029784;28;20207;-70
2024/03/12 07:38:59;;;;;;;10.00;6.50;;;;;;;6.38;100.00;100665.16;5028819;28;20462;-70
2024/03/12 07:41:26;;;;;;;10.07;6.30;;;;;;;6.47;100.00;100672.03;5030878;28;20204;-70
2024/03/12 07:43:52;;;;;;;8.43;6.37;;;;;;;6.57;100.00;100671.03;5035077;28;20239;-70
2024/03/12 07:46:19;;;;;;;10.17;7.13;;;;;;;6.66;100.00;100671.88;5029181;28;20692;-70
2024/03/12 07:48:45;;;;;;;8.27;6.33;;;;;;;6.76;100.00;100674.25;5029849;28;20209;-70
2024/03/12 07:51:13;;;;;;;9.13;6.03;;;;;;;6.85;100.00;100675.13;5030038;28;20204;-70
2024/03/12 07:53:40;;;;;;;9.97;6.43;;;;;;;6.97;100.00;100680.59;5030772;28;20668;-71
2024/03/12 07:56:07;;;;;;;10.10;6.73;;;;;;;7.08;100.00;100674.03;5035103;28;20185;-70
2024/03/12 07:58:35;;;;;;;10.17;6.90;;;;;;;7.19;100.00;100681.38;5032303;28;20192;-71
2024/03/12 08:01:01;;;;;;;9.77;6.73;;;;;;;7.31;100.00;100683.44;5027766;28;20195;-71
2024/03/12 08:03:28;;;;;;;9.30;7.03;;;;;;;7.41;100.00;100680.56;5031819;28;20225;-70
2024/03/12 08:05:54;;;;;;;9.87;7.07;;;;;;;7.52;100.00;100673.97;5033739;28;20320;-71
2024/03/12 08:08:22;;;;;;;11.47;7.27;;;;;;;7.63;100.00;100676.03;5035245;28;20664;-70
2024/03/12 08:10:48;;;;;;;9.73;6.67;;;;;;;7.75;100.00;100664.94;5029989;28;20208;-70
2024/03/12 08:13:15;;;;;;;8.33;6.23;;;;;;;7.85;100.00;100665.44;5033337;28;20209;-70
2024/03/12 08:15:41;;;;;;;10.90;6.30;;;;;;;7.94;100.00;100671.50;5028198;28;20216;-71
2024/03/12 08:18:09;;;;;;;8.17;6.60;;;;;;;8.03;100.00;100669.66;5025904;28;20209;-70
2024/03/12 08:20:36;;;;;;;8.47;6.23;;;;;;;8.12;100.00;100674.97;5032473;28;20648;-70
2024/03/12 08:23:04;;;;;;;8.63;6.50;;;;;;;8.20;100.00;100677.63;5028279;28;20262;-71
2024/03/12 08:25:32;;;;;;;11.27;6.40;;;;;;;8.26;100.00;100676.41;5029658;28;20222;-70
2024/03/12 08:27:58;;;;;;;8.10;6.47;;;;;;;8.33;100.00;100674.09;5030147;28;20203;-71
2024/03/12 08:30:25;;;;;;;7.17;6.00;;;;;;;8.39;100.00;100670.22;5029986;28;20210;-70
2024/03/12 08:32:51;;;;;;;11.30;6.67;;;;;;;8.44;100.00;100675.34;5025247;28;20203;-71
2024/03/12 08:35:18;;;;;;;9.10;6.40;;;;;;;8.50;100.00;100678.59;5029218;28;20211;-71
2024/03/12 08:37:44;;;;;;;8.20;6.50;;;;;;;8.56;100.00;100680.78;5029656;28;20209;-70
2024/03/12 08:40:14;;;;;;;9.70;6.83;;;;;;;8.63;100.00;100685.56;5033681;28;20200;-70
2024/03/12 08:42:42;;;;;;;9.63;6.93;;;;;;;8.68;100.00;100680.16;5029161;28;20253;-70
2024/03/12 08:45:09;;;;;;;9.13;6.67;;;;;;;8.74;100.00;100673.63;5029141;28;20230;-71
2024/03/12 08:47:35;;;;;;;8.23;6.20;;;;;;;8.79;100.00;100689.28;5031488;28;20230;-71
2024/03/12 08:50:02;;;;;;;10.40;7.40;;;;;;;8.85;100.00;100688.81;5027093;28;20295;-71
2024/03/12 08:52:29;;;;;;;8.57;6.37;;;;;;;8.92;100.00;100691.78;5024723;28;20214;-70
2024/03/12 08:54:57;;;;;;;7.80;5.73;;;;;;;8.98;100.00;100684.47;5024004;28;20293;-70
2024/03/12 08:57:25;;;;;;;8.80;6.40;;;;;;;9.04;100.00;100685.84;5024684;28;20285;-70
2024/03/12 08:59:53;;;;;;;8.73;6.53;;;;;;;9.10;100.00;100688.03;5027956;28;20212;-70
2024/03/12 09:02:19;;;;;;;8.77;6.13;;;;;;;9.16;100.00;100693.91;5024821;28;20468;-70
2024/03/12 09:04:45;;;;;;;7.90;6.30;;;;;;;9.23;100.00;100689.72;5029474;28;20715;-71
2024/03/12 09:07:13;;;;;;;9.63;6.17;;;;;;;9.31;100.00;100690.78;5027363;28;20211;-71
2024/03/12 09:09:39;;;;;;;10.63;6.60;;;;;;;9.38;100.00;100691.81;5031392;28;20203;-70
2024/03/12 09:12:06;;;;;;;8.53;6.17;;;;;;;9.45;100.00;100694.78;5030844;28;20231;-70
2024/03/12 09:14:33;;;;;;;7.13;5.80;;;;;;;9.52;100.00;100694.28;5026294;28;20263;-70
2024/03/12 09:17:04;;;;;;;10.23;6.30;;;;;;;9.58;100.00;100693.03;5027020;28;20203;-71
2024/03/12 09:19:30;;;;;;;9.17;6.40;;;;;;;9.64;100.00;100702.31;5027366;28;20253;-70
2024/03/12 09:21:58;;;;;;;12.27;9.60;;;;;;;9.71;100.00;100699.94;5027337;28;20211;-70
2024/03/12 09:24:26;;;;;;;11.17;7.13;;;;;;;9.81;100.00;100707.50;5028452;28;20232;-71
2024/03/12 09:26:53;;;;;;;7.20;5.80;;;;;;;9.90;100.00;100706.41;5030355;28;20196;-71
2024/03/12 09:29:20;;;;;;;7.60;6.00;;;;;;;9.99;100.00;100706.34;5028968;28;20201;-71
2024/03/12 09:31:46;;;;;;;7.90;5.90;;;;;;;10.06;100.00;100712.72;5030553;28;20234;-71
2024/03/12 09:34:14;;;;;;;8.80;6.00;;;;;;;10.14;100.00;100719.81;5026446;28;20582;-70
2024/03/12 09:36:41;;;;;;;6.57;5.83;;;;;;;10.22;100.00;100713.72;5026577;28;20266;-70
2024/03/12 09:39:10;;;;;;;7.07;5.60;;;;;;;10.32;100.00;100712.56;5024556;28;20715;-70
2024/03/12 09:41:39;;;;;;;9.17;5.60;;;;;;;10.36;100.00;100714.22;5023671;28;20202;-70
2024/03/12 09:44:06;;;;;;;10.80;5.90;;;;;;;10.45;100.00;100711.56;5023389;28;20242;-70
2024/03/12 09:46:32;;;;;;;6.03;5.20;;;;;;;10.54;100.00;100718.31;5022065;28;20200;-71
2024/03/12 09:48:59;;;;;;;7.67;5.63;;;;;;;10.63;100.00;100712.97;5025863;28;20214;-71
2024/03/12 09:51:27;;;;;;;8.70;6.27;;;;;;;10.68;100.00;100718.84;5026465;28;20574;-70
2024/03/12 09:53:53;;;;;;;7.73;5.80;;;;;;;10.79;100.00;100721.84;5030927;28;20642;-71
2024/03/12 09:56:20;;;;;;;8.27;5.07;;;;;;;10.87;100.00;100719.16;5026124;28;20212;-71
2024/03/12 09:58:48;;;;;;;6.63;4.83;;;;;;;10.96;100.00;100716.44;5029331;28;20204;-70
2024/03/12 10:01:14;;;;;;;6.80;5.40;;;;;;;11.02;100.00;100713.28;5026148;28;20336;-70
2024/03/12 10:03:41;;;;;;;6.73;4.77;;;;;;;11.13;100.00;100719.69;5027121;28;20218;-71
2024/03/12 10:06:09;;;;;;;8.30;4.80;;;;;;;11.21;100.00;100716.22;5031008;28;20214;-71
2024/03/12 10:08:36;;;;;;;5.03;3.90;;;;;;;11.34;100.00;100714.38;5029709;28;20203;-70
2024/03/12 10:11:07;;;;;;;5.77;4.30;;;;;;;11.45;100.00;100716.25;5028019;28;20195;-71
2024/03/12 10:13:36;;;;;;;5.87;4.43;;;;;;;11.57;100.00;100712.88;5029270;28;20529;-71
2024/03/12 10:16:03;;;;;;;6.47;4.30;;;;;;;11.62;100.00;100718.75;5027221;28;20809;-71
2024/03/12 10:18:33;;;;;;;8.70;4.13;;;;;;;11.72;100.00;100717.56;5025522;28;20605;-71
2024/03/12 10:21:01;;;;;;;5.77;4.10;;;;;;;11.85;100.00;100711.94;5027270;28;20207;-71
2024/03/12 10:23:29;;;;;;;4.40;3.50;;;;;;;11.93;100.00;100719.00;5030069;28;20211;-71
2024/03/12 10:26:07;;;;;;;5.57;4.03;;;;;;;12.07;100.00;100713.38;5021224;28;20224;-71
2024/03/12 10:28:34;;;;;;;5.97;3.70;;;;;;;12.18;100.00;100704.69;5025089;28;20204;-71
2024/03/12 10:31:08;;;;;;;6.37;3.50;;;;;;;12.33;100.00;100716.47;5031911;28;20207;-71
2024/03/12 10:33:36;;;;;;;3.97;3.27;;;;;;;12.44;100.00;100712.25;5029987;28;20202;-70
2024/03/12 10:36:04;;;;;;;3.83;3.03;;;;;;;12.56;100.00;100704.25;5031222;28;20207;-71
2024/03/12 10:38:32;;;;;;;3.87;2.90;;;;;;;12.69;100.00;100708.44;5030552;28;20338;-71
2024/03/12 10:41:14;;;;;;;4.03;3.00;;;;;;;12.80;100.00;100712.16;5030464;28;20211;-71
2024/03/12 10:43:40;;;;;;;4.63;3.03;;;;;;;12.90;98.97;100717.75;5028173;28;20223;-70
2024/03/12 10:46:10;;;;;;;4.23;3.07;;;;;;;12.99;100.00;100707.78;5026341;28;20191;-71
2024/03/12 10:48:40;;;;;;;5.13;2.67;;;;;;;13.08;100.00;100716.38;5031576;28;20263;-71
2024/03/12 10:51:07;;;;;;;4.63;2.67;;;;;;;13.18;100.00;100713.25;5031852;28;20723;-71
2024/03/12 10:53:34;;;;;;;3.30;2.53;;;;;;;13.31;94.68;100711.31;5030425;28;20199;-71
2024/03/12 10:56:03;;;;;;;4.27;2.53;;;;;;;13.39;91.13;100716.44;5031641;28;20196;-71
2024/03/12 10:58:31;;;;;;;3.23;2.63;;;;;;;13.53;95.38;100708.84;5025966;28;20211;-71
2024/03/12 11:00:59;;;;;;;3.43;2.77;;;;;;;13.62;100.00;100709.44;5029058;28;20192;-71
2024/03/12 11:03:26;;;;;;;7.43;4.47;;;;;;;13.71;93.26;100720.66;5028467;28;20211;-71
2024/03/12 11:05:54;;;;;;;6.17;3.80;;;;;;;13.79;85.26;100724.25;5029347;28;20234;-71
2024/03/12 11:08:21;;;;;;;4.87;3.27;;;;;;;13.86;77.74;100725.19;5029990;28;20208;-71
2024/03/12 11:10:48;;;;;;;5.23;2.70;;;;;;;13.92;75.24;100710.56;5030049;28;20210;-71
2024/03/12 11:13:17;;;;;;;3.20;2.80;;;;;;;14.01;76.88;100716.47;5026071;28;20210;-71
2024/03/12 11:15:44;;;;;;;5.30;2.40;;;;;;;14.09;77.62;100728.81;5026603;28;20290;-71
2024/03/12 11:18:10;;;;;;;4.60;3.00;;;;;;;14.16;76.14;100723.63;5029019;28;20196;-71
2024/03/12 11:20:39;;;;;;;4.97;2.70;;;;;;;14.20;72.08;100724.53;5029260;28;20194;-70
2024/03/12 11:23:06;;;;;;;3.63;2.67;;;;;;;14.23;76.94;100726.47;5024127;28;20199;-70
2024/03/12 11:25:33;;;;;;;3.47;2.70;;;;;;;14.25;74.29;100716.28;5029190;28;20243;-71
2024/03/12 11:28:23;;;;;;;5.13;3.70;;;;;;;14.29;70.88;100719.78;5031438;28;20208;-71
2024/03/12 11:31:01;;;;;;;5.40;3.63;;;;;;;14.33;72.81;100722.53;5033352;28;21279;-71
2024/03/12 11:33:45;;;;;;;3.90;3.37;;;;;;;14.36;72.68;100717.28;5025982;28;20199;-71
2024/03/12 11:36:20;;;;;;;4.40;3.27;;;;;;;14.41;71.95;100716.25;5024806;28;20288;-71
2024/03/12 11:38:47;;;;;;;8.17;5.03;;;;;;;14.42;70.62;100720.44;5022311;28;20604;-71
2024/03/12 11:41:16;;;;;;;8.67;3.20;;;;;;;14.43;69.96;100717.44;5028116;28;20195;-71
2024/03/12 11:43:44;;;;;;;4.13;3.03;;;;;;;14.44;69.04;100718.97;5025442;28;20562;-71
2024/03/12 11:46:11;;;;;;;5.77;2.97;;;;;;;14.49;71.86;100709.97;5031634;28;20262;-71
2024/03/12 11:48:39;;;;;;;4.77;3.37;;;;;;;14.53;69.07;100710.78;5028845;28;20200;-71
2024/03/12 11:51:09;;;;;;;4.50;3.83;;;;;;;14.57;69.11;100707.13;5026806;28;20196;-71
2024/03/12 11:53:39;;;;;;;4.73;3.50;;;;;;;14.63;71.55;100712.91;5030155;28;20196;-71